sensor_id;sensor_type;location;lat;lon;timestamp;P1;durP1;ratioP1;P2;durP2;ratioP2
1390;SDS011;690;51.454;7.194;2022-07-29T00:01:34;3.23;;;1.80;;
1390;SDS011;690;51.454;7.194;2022-07-29T00:04:01;3.33;;;1.37;;
1390;SDS011;690;51.454;7.194;2022-07-29T00:06:29;4.50;;;1.80;;
1390;SDS011;690;51.454;7.194;2022-07-29T00:08:56;2.80;;;1.50;;
1390;SDS011;690;51.454;7.194;2022-07-29T00:11:23;2.77;;;1.90;;
1390;SDS011;690;51.454;7.194;2022-07-29T00:13:50;4.03;;;1.97;;
1390;SDS011;690;51.454;7.194;2022-07-29T00:16:17;8.13;;;1.80;;
1390;SDS011;690;51.454;7.194;2022-07-29T00:18:44;3.00;;;1.70;;
1390;SDS011;690;51.454;7.194;2022-07-29T00:21:11;3.63;;;1.57;;
1390;SDS011;690;51.454;7.194;2022-07-29T00:23:39;7.80;;;1.70;;
1390;SDS011;690;51.454;7.194;2022-07-29T00:26:07;3.87;;;2.07;;
1390;SDS011;690;51.454;7.194;2022-07-29T00:28:34;4.87;;;1.60;;
1390;SDS011;690;51.454;7.194;2022-07-29T00:31:01;3.83;;;2.13;;
1390;SDS011;690;51.454;7.194;2022-07-29T00:33:28;6.37;;;1.80;;
1390;SDS011;690;51.454;7.194;2022-07-29T00:35:56;7.97;;;1.33;;
1390;SDS011;690;51.454;7.194;2022-07-29T00:38:22;3.23;;;1.57;;
1390;SDS011;690;51.454;7.194;2022-07-29T00:40:50;4.27;;;1.67;;
1390;SDS011;690;51.454;7.194;2022-07-29T00:43:18;7.53;;;1.90;;
1390;SDS011;690;51.454;7.194;2022-07-29T00:45:45;3.77;;;1.50;;
1390;SDS011;690;51.454;7.194;2022-07-29T00:48:12;3.03;;;1.53;;
1390;SDS011;690;51.454;7.194;2022-07-29T00:50:40;5.00;;;1.50;;
1390;SDS011;690;51.454;7.194;2022-07-29T00:53:07;2.40;;;1.70;;
1390;SDS011;690;51.454;7.194;2022-07-29T00:55:37;3.07;;;1.67;;
1390;SDS011;690;51.454;7.194;2022-07-29T00:58:05;2.37;;;1.60;;
1390;SDS011;690;51.454;7.194;2022-07-29T01:00:32;4.60;;;1.53;;
1390;SDS011;690;51.454;7.194;2022-07-29T01:03:00;7.40;;;1.67;;
1390;SDS011;690;51.454;7.194;2022-07-29T01:05:27;4.47;;;1.83;;
1390;SDS011;690;51.454;7.194;2022-07-29T01:07:55;3.50;;;1.63;;
1390;SDS011;690;51.454;7.194;2022-07-29T01:10:23;2.63;;;1.50;;
1390;SDS011;690;51.454;7.194;2022-07-29T01:12:52;4.53;;;1.50;;
1390;SDS011;690;51.454;7.194;2022-07-29T01:15:24;6.40;;;1.80;;
1390;SDS011;690;51.454;7.194;2022-07-29T01:17:52;4.77;;;1.80;;
1390;SDS011;690;51.454;7.194;2022-07-29T01:20:26;3.93;;;1.87;;
1390;SDS011;690;51.454;7.194;2022-07-29T01:26:18;3.57;;;1.90;;
1390;SDS011;690;51.454;7.194;2022-07-29T01:29:01;2.83;;;1.73;;
1390;SDS011;690;51.454;7.194;2022-07-29T01:31:32;2.93;;;1.80;;
1390;SDS011;690;51.454;7.194;2022-07-29T01:34:05;3.23;;;1.50;;
1390;SDS011;690;51.454;7.194;2022-07-29T01:36:36;3.53;;;1.60;;
1390;SDS011;690;51.454;7.194;2022-07-29T01:39:11;4.40;;;2.00;;
1390;SDS011;690;51.454;7.194;2022-07-29T01:41:44;6.20;;;1.87;;
1390;SDS011;690;51.454;7.194;2022-07-29T01:44:19;3.50;;;1.53;;
1390;SDS011;690;51.454;7.194;2022-07-29T01:46:54;5.00;;;1.90;;
1390;SDS011;690;51.454;7.194;2022-07-29T01:49:25;3.60;;;2.00;;
1390;SDS011;690;51.454;7.194;2022-07-29T01:51:57;3.03;;;1.70;;
1390;SDS011;690;51.454;7.194;2022-07-29T01:54:30;3.00;;;1.40;;
1390;SDS011;690;51.454;7.194;2022-07-29T01:57:00;4.97;;;1.63;;
1390;SDS011;690;51.454;7.194;2022-07-29T01:59:31;6.10;;;1.63;;
1390;SDS011;690;51.454;7.194;2022-07-29T02:02:01;2.20;;;1.30;;
1390;SDS011;690;51.454;7.194;2022-07-29T02:04:28;4.53;;;1.80;;
1390;SDS011;690;51.454;7.194;2022-07-29T02:07:00;3.30;;;1.50;;
1390;SDS011;690;51.454;7.194;2022-07-29T02:09:31;4.17;;;1.50;;
1390;SDS011;690;51.454;7.194;2022-07-29T02:12:02;3.80;;;1.90;;
1390;SDS011;690;51.454;7.194;2022-07-29T02:14:33;3.97;;;2.27;;
1390;SDS011;690;51.454;7.194;2022-07-29T02:17:03;5.63;;;1.40;;
1390;SDS011;690;51.454;7.194;2022-07-29T02:19:31;7.00;;;2.13;;
1390;SDS011;690;51.454;7.194;2022-07-29T02:22:00;4.73;;;2.03;;
1390;SDS011;690;51.454;7.194;2022-07-29T02:24:28;4.40;;;1.73;;
1390;SDS011;690;51.454;7.194;2022-07-29T02:26:57;5.37;;;2.10;;
1390;SDS011;690;51.454;7.194;2022-07-29T02:29:27;5.87;;;1.80;;
1390;SDS011;690;51.454;7.194;2022-07-29T02:31:58;4.23;;;1.83;;
1390;SDS011;690;51.454;7.194;2022-07-29T02:34:26;4.37;;;1.80;;
1390;SDS011;690;51.454;7.194;2022-07-29T02:36:55;2.90;;;1.60;;
1390;SDS011;690;51.454;7.194;2022-07-29T02:39:22;5.10;;;2.30;;
1390;SDS011;690;51.454;7.194;2022-07-29T02:41:52;3.50;;;1.47;;
1390;SDS011;690;51.454;7.194;2022-07-29T02:44:25;3.13;;;1.63;;
1390;SDS011;690;51.454;7.194;2022-07-29T02:46:53;4.77;;;1.43;;
1390;SDS011;690;51.454;7.194;2022-07-29T02:49:30;4.30;;;1.80;;
1390;SDS011;690;51.454;7.194;2022-07-29T02:52:03;2.87;;;2.20;;
1390;SDS011;690;51.454;7.194;2022-07-29T02:54:34;4.90;;;1.80;;
1390;SDS011;690;51.454;7.194;2022-07-29T02:57:06;4.97;;;1.90;;
1390;SDS011;690;51.454;7.194;2022-07-29T02:59:39;4.00;;;1.53;;
1390;SDS011;690;51.454;7.194;2022-07-29T03:02:10;2.17;;;1.80;;
1390;SDS011;690;51.454;7.194;2022-07-29T03:04:40;4.80;;;1.87;;
1390;SDS011;690;51.454;7.194;2022-07-29T03:07:09;5.07;;;1.93;;
1390;SDS011;690;51.454;7.194;2022-07-29T03:09:39;2.20;;;2.00;;
1390;SDS011;690;51.454;7.194;2022-07-29T03:12:08;3.77;;;2.33;;
1390;SDS011;690;51.454;7.194;2022-07-29T03:14:35;4.00;;;1.60;;
1390;SDS011;690;51.454;7.194;2022-07-29T03:17:04;2.20;;;1.90;;
1390;SDS011;690;51.454;7.194;2022-07-29T03:19:33;6.80;;;1.67;;
1390;SDS011;690;51.454;7.194;2022-07-29T03:22:01;3.97;;;1.73;;
1390;SDS011;690;51.454;7.194;2022-07-29T03:24:29;5.70;;;2.27;;
1390;SDS011;690;51.454;7.194;2022-07-29T03:26:58;5.13;;;2.37;;
1390;SDS011;690;51.454;7.194;2022-07-29T03:29:25;6.23;;;2.27;;
1390;SDS011;690;51.454;7.194;2022-07-29T03:31:53;3.37;;;1.53;;
1390;SDS011;690;51.454;7.194;2022-07-29T03:34:20;2.70;;;1.83;;
1390;SDS011;690;51.454;7.194;2022-07-29T03:36:49;3.87;;;2.07;;
1390;SDS011;690;51.454;7.194;2022-07-29T03:39:18;5.40;;;1.73;;
1390;SDS011;690;51.454;7.194;2022-07-29T03:41:50;3.40;;;1.60;;
1390;SDS011;690;51.454;7.194;2022-07-29T03:44:21;2.90;;;1.50;;
1390;SDS011;690;51.454;7.194;2022-07-29T03:46:50;4.57;;;2.00;;
1390;SDS011;690;51.454;7.194;2022-07-29T03:49:20;2.30;;;1.87;;
1390;SDS011;690;51.454;7.194;2022-07-29T03:51:51;7.47;;;2.13;;
1390;SDS011;690;51.454;7.194;2022-07-29T03:54:18;4.17;;;1.80;;
1390;SDS011;690;51.454;7.194;2022-07-29T03:56:46;4.17;;;2.00;;
1390;SDS011;690;51.454;7.194;2022-07-29T03:59:15;3.90;;;1.80;;
1390;SDS011;690;51.454;7.194;2022-07-29T04:01:45;4.23;;;2.10;;
1390;SDS011;690;51.454;7.194;2022-07-29T04:04:12;4.17;;;1.90;;
1390;SDS011;690;51.454;7.194;2022-07-29T04:06:40;4.83;;;2.10;;
1390;SDS011;690;51.454;7.194;2022-07-29T04:09:09;3.57;;;1.80;;
1390;SDS011;690;51.454;7.194;2022-07-29T04:11:37;3.80;;;2.10;;
1390;SDS011;690;51.454;7.194;2022-07-29T04:14:05;3.43;;;1.97;;
1390;SDS011;690;51.454;7.194;2022-07-29T04:16:33;4.00;;;2.40;;
1390;SDS011;690;51.454;7.194;2022-07-29T04:19:00;5.80;;;1.87;;
1390;SDS011;690;51.454;7.194;2022-07-29T04:21:27;3.73;;;1.83;;
1390;SDS011;690;51.454;7.194;2022-07-29T04:23:54;4.57;;;1.93;;
1390;SDS011;690;51.454;7.194;2022-07-29T04:26:23;5.80;;;2.00;;
1390;SDS011;690;51.454;7.194;2022-07-29T04:28:50;4.93;;;1.70;;
1390;SDS011;690;51.454;7.194;2022-07-29T04:31:17;7.70;;;2.00;;
1390;SDS011;690;51.454;7.194;2022-07-29T04:33:44;3.83;;;1.93;;
1390;SDS011;690;51.454;7.194;2022-07-29T04:36:11;4.60;;;1.90;;
1390;SDS011;690;51.454;7.194;2022-07-29T04:38:38;5.90;;;1.80;;
1390;SDS011;690;51.454;7.194;2022-07-29T04:41:05;5.63;;;2.30;;
1390;SDS011;690;51.454;7.194;2022-07-29T04:43:35;6.43;;;2.20;;
1390;SDS011;690;51.454;7.194;2022-07-29T04:46:02;4.27;;;2.20;;
1390;SDS011;690;51.454;7.194;2022-07-29T04:48:30;4.33;;;2.30;;
1390;SDS011;690;51.454;7.194;2022-07-29T04:50:57;4.77;;;2.17;;
1390;SDS011;690;51.454;7.194;2022-07-29T04:53:24;6.73;;;2.13;;
1390;SDS011;690;51.454;7.194;2022-07-29T04:55:52;5.57;;;2.53;;
1390;SDS011;690;51.454;7.194;2022-07-29T04:58:18;10.40;;;2.23;;
1390;SDS011;690;51.454;7.194;2022-07-29T05:00:49;8.20;;;2.40;;
1390;SDS011;690;51.454;7.194;2022-07-29T05:03:16;2.30;;;2.10;;
1390;SDS011;690;51.454;7.194;2022-07-29T05:05:43;8.63;;;2.97;;
1390;SDS011;690;51.454;7.194;2022-07-29T05:08:11;5.40;;;2.47;;
1390;SDS011;690;51.454;7.194;2022-07-29T05:10:38;4.97;;;2.30;;
1390;SDS011;690;51.454;7.194;2022-07-29T05:13:05;5.80;;;2.60;;
1390;SDS011;690;51.454;7.194;2022-07-29T05:15:32;3.40;;;2.77;;
1390;SDS011;690;51.454;7.194;2022-07-29T05:18:01;6.87;;;2.60;;
1390;SDS011;690;51.454;7.194;2022-07-29T05:20:29;5.10;;;2.43;;
1390;SDS011;690;51.454;7.194;2022-07-29T05:22:56;3.67;;;3.17;;
1390;SDS011;690;51.454;7.194;2022-07-29T05:25:24;7.00;;;2.80;;
1390;SDS011;690;51.454;7.194;2022-07-29T05:27:52;6.77;;;3.67;;
1390;SDS011;690;51.454;7.194;2022-07-29T05:30:20;5.20;;;2.40;;
1390;SDS011;690;51.454;7.194;2022-07-29T05:32:47;4.70;;;2.60;;
1390;SDS011;690;51.454;7.194;2022-07-29T05:35:16;2.77;;;2.47;;
1390;SDS011;690;51.454;7.194;2022-07-29T05:37:43;7.13;;;3.30;;
1390;SDS011;690;51.454;7.194;2022-07-29T05:40:10;5.03;;;2.77;;
1390;SDS011;690;51.454;7.194;2022-07-29T05:42:37;4.70;;;2.50;;
1390;SDS011;690;51.454;7.194;2022-07-29T05:45:05;6.57;;;2.50;;
1390;SDS011;690;51.454;7.194;2022-07-29T05:47:32;6.83;;;2.80;;
1390;SDS011;690;51.454;7.194;2022-07-29T05:50:00;5.63;;;3.03;;
1390;SDS011;690;51.454;7.194;2022-07-29T05:52:28;4.40;;;3.00;;
1390;SDS011;690;51.454;7.194;2022-07-29T05:54:55;6.30;;;3.20;;
1390;SDS011;690;51.454;7.194;2022-07-29T05:57:23;3.90;;;3.20;;
1390;SDS011;690;51.454;7.194;2022-07-29T05:59:50;4.67;;;3.30;;
1390;SDS011;690;51.454;7.194;2022-07-29T06:02:17;5.43;;;2.93;;
1390;SDS011;690;51.454;7.194;2022-07-29T06:04:45;5.80;;;3.27;;
1390;SDS011;690;51.454;7.194;2022-07-29T06:07:12;5.13;;;2.43;;
1390;SDS011;690;51.454;7.194;2022-07-29T06:09:40;6.73;;;3.00;;
1390;SDS011;690;51.454;7.194;2022-07-29T06:12:08;5.03;;;3.37;;
1390;SDS011;690;51.454;7.194;2022-07-29T06:14:35;12.83;;;3.47;;
1390;SDS011;690;51.454;7.194;2022-07-29T06:17:03;7.63;;;2.90;;
1390;SDS011;690;51.454;7.194;2022-07-29T06:19:30;6.00;;;2.93;;
1390;SDS011;690;51.454;7.194;2022-07-29T06:22:00;5.93;;;3.67;;
1390;SDS011;690;51.454;7.194;2022-07-29T06:24:27;7.37;;;3.60;;
1390;SDS011;690;51.454;7.194;2022-07-29T06:26:56;6.77;;;3.90;;
1390;SDS011;690;51.454;7.194;2022-07-29T06:29:23;7.10;;;4.30;;
1390;SDS011;690;51.454;7.194;2022-07-29T06:31:50;8.93;;;3.30;;
1390;SDS011;690;51.454;7.194;2022-07-29T06:34:17;8.60;;;3.00;;
1390;SDS011;690;51.454;7.194;2022-07-29T06:36:44;9.83;;;3.57;;
1390;SDS011;690;51.454;7.194;2022-07-29T06:39:11;5.50;;;3.33;;
1390;SDS011;690;51.454;7.194;2022-07-29T06:41:38;8.37;;;3.97;;
1390;SDS011;690;51.454;7.194;2022-07-29T06:44:07;4.00;;;3.20;;
1390;SDS011;690;51.454;7.194;2022-07-29T06:46:34;4.90;;;3.10;;
1390;SDS011;690;51.454;7.194;2022-07-29T06:49:01;8.63;;;3.30;;
1390;SDS011;690;51.454;7.194;2022-07-29T06:51:28;3.97;;;2.73;;
1390;SDS011;690;51.454;7.194;2022-07-29T06:53:56;6.43;;;3.13;;
1390;SDS011;690;51.454;7.194;2022-07-29T06:56:23;8.40;;;3.40;;
1390;SDS011;690;51.454;7.194;2022-07-29T06:58:51;4.97;;;2.60;;
1390;SDS011;690;51.454;7.194;2022-07-29T07:01:19;6.70;;;3.50;;
1390;SDS011;690;51.454;7.194;2022-07-29T07:03:46;4.33;;;2.83;;
1390;SDS011;690;51.454;7.194;2022-07-29T07:06:14;4.90;;;3.17;;
1390;SDS011;690;51.454;7.194;2022-07-29T07:08:41;5.07;;;3.50;;
1390;SDS011;690;51.454;7.194;2022-07-29T07:11:08;4.63;;;2.70;;
1390;SDS011;690;51.454;7.194;2022-07-29T07:13:35;5.67;;;2.83;;
1390;SDS011;690;51.454;7.194;2022-07-29T07:16:03;11.53;;;3.80;;
1390;SDS011;690;51.454;7.194;2022-07-29T07:18:32;6.30;;;4.10;;
1390;SDS011;690;51.454;7.194;2022-07-29T07:20:59;6.73;;;3.17;;
1390;SDS011;690;51.454;7.194;2022-07-29T07:23:26;5.00;;;3.60;;
1390;SDS011;690;51.454;7.194;2022-07-29T07:25:53;7.27;;;3.10;;
1390;SDS011;690;51.454;7.194;2022-07-29T07:28:20;7.03;;;4.17;;
1390;SDS011;690;51.454;7.194;2022-07-29T07:30:47;8.10;;;3.80;;
1390;SDS011;690;51.454;7.194;2022-07-29T07:33:14;5.30;;;2.70;;
1390;SDS011;690;51.454;7.194;2022-07-29T07:35:43;8.53;;;3.50;;
1390;SDS011;690;51.454;7.194;2022-07-29T07:38:10;5.50;;;2.97;;
1390;SDS011;690;51.454;7.194;2022-07-29T07:40:37;6.80;;;2.93;;
1390;SDS011;690;51.454;7.194;2022-07-29T07:43:04;6.77;;;3.00;;
1390;SDS011;690;51.454;7.194;2022-07-29T07:45:31;6.93;;;3.67;;
1390;SDS011;690;51.454;7.194;2022-07-29T07:47:59;4.03;;;3.30;;
1390;SDS011;690;51.454;7.194;2022-07-29T07:50:26;7.67;;;2.97;;
1390;SDS011;690;51.454;7.194;2022-07-29T07:52:55;5.87;;;3.40;;
1390;SDS011;690;51.454;7.194;2022-07-29T07:55:23;6.80;;;3.50;;
1390;SDS011;690;51.454;7.194;2022-07-29T07:57:50;4.57;;;3.07;;
1390;SDS011;690;51.454;7.194;2022-07-29T08:00:17;8.03;;;3.43;;
1390;SDS011;690;51.454;7.194;2022-07-29T08:02:44;7.20;;;3.30;;
1390;SDS011;690;51.454;7.194;2022-07-29T08:05:12;5.33;;;2.70;;
1390;SDS011;690;51.454;7.194;2022-07-29T08:07:42;6.73;;;3.17;;
1390;SDS011;690;51.454;7.194;2022-07-29T08:10:11;4.07;;;3.30;;
1390;SDS011;690;51.454;7.194;2022-07-29T08:12:39;7.97;;;3.70;;
1390;SDS011;690;51.454;7.194;2022-07-29T08:15:12;7.23;;;3.53;;
1390;SDS011;690;51.454;7.194;2022-07-29T08:17:48;5.27;;;3.47;;
1390;SDS011;690;51.454;7.194;2022-07-29T08:20:15;5.80;;;3.77;;
1390;SDS011;690;51.454;7.194;2022-07-29T08:22:42;4.80;;;3.10;;
1390;SDS011;690;51.454;7.194;2022-07-29T08:25:09;6.23;;;3.47;;
1390;SDS011;690;51.454;7.194;2022-07-29T08:27:38;8.80;;;4.43;;
1390;SDS011;690;51.454;7.194;2022-07-29T08:30:21;10.10;;;3.80;;
1390;SDS011;690;51.454;7.194;2022-07-29T08:32:48;5.73;;;3.00;;
1390;SDS011;690;51.454;7.194;2022-07-29T08:35:21;8.70;;;3.73;;
1390;SDS011;690;51.454;7.194;2022-07-29T08:37:48;5.97;;;3.37;;
1390;SDS011;690;51.454;7.194;2022-07-29T08:40:17;4.83;;;3.13;;
1390;SDS011;690;51.454;7.194;2022-07-29T08:42:45;9.73;;;4.20;;
1390;SDS011;690;51.454;7.194;2022-07-29T08:45:12;5.90;;;3.70;;
1390;SDS011;690;51.454;7.194;2022-07-29T08:47:39;6.60;;;3.80;;
1390;SDS011;690;51.454;7.194;2022-07-29T08:50:07;6.80;;;3.73;;
1390;SDS011;690;51.454;7.194;2022-07-29T08:52:35;5.73;;;3.57;;
1390;SDS011;690;51.454;7.194;2022-07-29T08:55:03;5.93;;;3.67;;
1390;SDS011;690;51.454;7.194;2022-07-29T08:57:33;4.47;;;3.50;;
1390;SDS011;690;51.454;7.194;2022-07-29T09:00:02;5.00;;;4.10;;
1390;SDS011;690;51.454;7.194;2022-07-29T09:02:33;7.60;;;4.10;;
1390;SDS011;690;51.454;7.194;2022-07-29T09:05:05;9.33;;;4.13;;
1390;SDS011;690;51.454;7.194;2022-07-29T09:07:33;7.77;;;4.40;;
1390;SDS011;690;51.454;7.194;2022-07-29T09:10:02;10.07;;;5.63;;
1390;SDS011;690;51.454;7.194;2022-07-29T09:12:33;6.77;;;4.13;;
1390;SDS011;690;51.454;7.194;2022-07-29T09:15:00;6.57;;;4.70;;
1390;SDS011;690;51.454;7.194;2022-07-29T09:17:39;5.70;;;4.20;;
1390;SDS011;690;51.454;7.194;2022-07-29T09:20:10;9.67;;;4.70;;
1390;SDS011;690;51.454;7.194;2022-07-29T09:22:38;10.00;;;4.67;;
1390;SDS011;690;51.454;7.194;2022-07-29T09:25:06;5.23;;;4.27;;
1390;SDS011;690;51.454;7.194;2022-07-29T09:27:40;6.73;;;4.80;;
1390;SDS011;690;51.454;7.194;2022-07-29T09:30:15;6.33;;;4.60;;
1390;SDS011;690;51.454;7.194;2022-07-29T09:33:14;8.00;;;5.27;;
1390;SDS011;690;51.454;7.194;2022-07-29T09:35:58;8.60;;;5.80;;
1390;SDS011;690;51.454;7.194;2022-07-29T09:38:26;8.90;;;4.90;;
1390;SDS011;690;51.454;7.194;2022-07-29T09:40:55;7.20;;;4.57;;
1390;SDS011;690;51.454;7.194;2022-07-29T09:43:24;5.73;;;4.50;;
1390;SDS011;690;51.454;7.194;2022-07-29T09:45:52;7.40;;;5.30;;
1390;SDS011;690;51.454;7.194;2022-07-29T09:48:21;6.87;;;4.47;;
1390;SDS011;690;51.454;7.194;2022-07-29T09:50:49;7.63;;;4.70;;
1390;SDS011;690;51.454;7.194;2022-07-29T09:53:29;10.67;;;4.10;;
1390;SDS011;690;51.454;7.194;2022-07-29T09:55:57;5.30;;;4.43;;
1390;SDS011;690;51.454;7.194;2022-07-29T09:58:26;11.63;;;4.60;;
1390;SDS011;690;51.454;7.194;2022-07-29T10:00:53;7.83;;;4.07;;
1390;SDS011;690;51.454;7.194;2022-07-29T10:03:21;9.23;;;4.00;;
1390;SDS011;690;51.454;7.194;2022-07-29T10:06:03;7.83;;;4.47;;
1390;SDS011;690;51.454;7.194;2022-07-29T10:08:33;14.17;;;3.93;;
1390;SDS011;690;51.454;7.194;2022-07-29T10:11:10;10.00;;;4.03;;
1390;SDS011;690;51.454;7.194;2022-07-29T10:13:44;8.60;;;4.53;;
1390;SDS011;690;51.454;7.194;2022-07-29T10:16:13;13.53;;;4.80;;
1390;SDS011;690;51.454;7.194;2022-07-29T10:18:41;8.37;;;4.80;;
1390;SDS011;690;51.454;7.194;2022-07-29T10:21:09;6.93;;;5.00;;
1390;SDS011;690;51.454;7.194;2022-07-29T10:23:37;5.63;;;3.73;;
1390;SDS011;690;51.454;7.194;2022-07-29T10:26:06;7.60;;;3.97;;
1390;SDS011;690;51.454;7.194;2022-07-29T10:28:43;5.20;;;3.63;;
1390;SDS011;690;51.454;7.194;2022-07-29T10:31:12;16.63;;;4.37;;
1390;SDS011;690;51.454;7.194;2022-07-29T10:33:47;9.13;;;4.30;;
1390;SDS011;690;51.454;7.194;2022-07-29T10:36:32;6.20;;;4.00;;
1390;SDS011;690;51.454;7.194;2022-07-29T10:39:12;5.30;;;4.23;;
1390;SDS011;690;51.454;7.194;2022-07-29T10:41:56;8.57;;;3.80;;
1390;SDS011;690;51.454;7.194;2022-07-29T10:44:48;6.50;;;4.43;;
1390;SDS011;690;51.454;7.194;2022-07-29T10:47:25;9.00;;;5.07;;
1390;SDS011;690;51.454;7.194;2022-07-29T10:49:57;5.90;;;4.17;;
1390;SDS011;690;51.454;7.194;2022-07-29T10:52:31;8.43;;;3.80;;
1390;SDS011;690;51.454;7.194;2022-07-29T10:55:30;8.37;;;4.00;;
1390;SDS011;690;51.454;7.194;2022-07-29T10:58:10;9.80;;;4.13;;
1390;SDS011;690;51.454;7.194;2022-07-29T11:00:43;6.23;;;3.83;;
1390;SDS011;690;51.454;7.194;2022-07-29T11:06:10;8.33;;;4.07;;
1390;SDS011;690;51.454;7.194;2022-07-29T11:08:38;6.67;;;4.20;;
1390;SDS011;690;51.454;7.194;2022-07-29T11:14:05;6.77;;;3.53;;
1390;SDS011;690;51.454;7.194;2022-07-29T11:19:27;7.33;;;3.10;;
1390;SDS011;690;51.454;7.194;2022-07-29T11:21:55;6.70;;;3.60;;
1390;SDS011;690;51.454;7.194;2022-07-29T11:24:22;9.43;;;4.20;;
1390;SDS011;690;51.454;7.194;2022-07-29T11:27:12;6.27;;;4.03;;
1390;SDS011;690;51.454;7.194;2022-07-29T11:29:49;21.30;;;6.90;;
1390;SDS011;690;51.454;7.194;2022-07-29T11:32:19;6.60;;;4.30;;
1390;SDS011;690;51.454;7.194;2022-07-29T11:34:47;6.33;;;4.40;;
1390;SDS011;690;51.454;7.194;2022-07-29T11:37:19;5.90;;;4.47;;
1390;SDS011;690;51.454;7.194;2022-07-29T11:39:47;7.83;;;4.20;;
1390;SDS011;690;51.454;7.194;2022-07-29T11:42:39;9.17;;;4.53;;
1390;SDS011;690;51.454;7.194;2022-07-29T11:45:12;5.67;;;4.03;;
1390;SDS011;690;51.454;7.194;2022-07-29T11:47:48;6.60;;;3.90;;
1390;SDS011;690;51.454;7.194;2022-07-29T11:50:18;6.33;;;4.03;;
1390;SDS011;690;51.454;7.194;2022-07-29T11:52:57;6.53;;;4.60;;
1390;SDS011;690;51.454;7.194;2022-07-29T11:55:24;6.60;;;4.23;;
1390;SDS011;690;51.454;7.194;2022-07-29T11:57:52;7.00;;;4.57;;
1390;SDS011;690;51.454;7.194;2022-07-29T12:00:24;5.07;;;4.03;;
1390;SDS011;690;51.454;7.194;2022-07-29T12:02:54;5.80;;;4.23;;
1390;SDS011;690;51.454;7.194;2022-07-29T12:05:30;4.30;;;3.90;;
1390;SDS011;690;51.454;7.194;2022-07-29T12:08:10;6.77;;;3.70;;
1390;SDS011;690;51.454;7.194;2022-07-29T12:10:39;9.67;;;4.30;;
1390;SDS011;690;51.454;7.194;2022-07-29T12:13:11;10.40;;;4.67;;
1390;SDS011;690;51.454;7.194;2022-07-29T12:15:38;8.53;;;4.47;;
1390;SDS011;690;51.454;7.194;2022-07-29T12:18:10;8.10;;;4.37;;
1390;SDS011;690;51.454;7.194;2022-07-29T12:20:39;9.00;;;4.00;;
1390;SDS011;690;51.454;7.194;2022-07-29T12:23:06;6.73;;;4.00;;
1390;SDS011;690;51.454;7.194;2022-07-29T12:25:37;9.00;;;4.10;;
1390;SDS011;690;51.454;7.194;2022-07-29T12:28:05;11.50;;;4.10;;
1390;SDS011;690;51.454;7.194;2022-07-29T12:30:34;6.37;;;3.47;;
1390;SDS011;690;51.454;7.194;2022-07-29T12:33:11;7.50;;;4.63;;
1390;SDS011;690;51.454;7.194;2022-07-29T12:35:40;5.73;;;3.60;;
1390;SDS011;690;51.454;7.194;2022-07-29T12:38:09;9.27;;;4.40;;
1390;SDS011;690;51.454;7.194;2022-07-29T12:40:38;7.60;;;3.77;;
1390;SDS011;690;51.454;7.194;2022-07-29T12:43:09;7.67;;;4.40;;
1390;SDS011;690;51.454;7.194;2022-07-29T12:45:38;6.33;;;3.60;;
1390;SDS011;690;51.454;7.194;2022-07-29T12:48:06;6.87;;;4.37;;
1390;SDS011;690;51.454;7.194;2022-07-29T12:50:36;10.00;;;4.90;;
1390;SDS011;690;51.454;7.194;2022-07-29T12:53:17;6.80;;;4.30;;
1390;SDS011;690;51.454;7.194;2022-07-29T12:55:45;7.00;;;4.87;;
1390;SDS011;690;51.454;7.194;2022-07-29T12:58:26;5.80;;;4.50;;
1390;SDS011;690;51.454;7.194;2022-07-29T13:01:05;10.13;;;4.80;;
1390;SDS011;690;51.454;7.194;2022-07-29T13:03:43;5.00;;;3.53;;
1390;SDS011;690;51.454;7.194;2022-07-29T13:06:29;4.87;;;3.17;;
1390;SDS011;690;51.454;7.194;2022-07-29T13:09:02;5.53;;;3.87;;
1390;SDS011;690;51.454;7.194;2022-07-29T13:11:32;6.90;;;3.80;;
1390;SDS011;690;51.454;7.194;2022-07-29T13:14:00;3.87;;;3.03;;
1390;SDS011;690;51.454;7.194;2022-07-29T13:16:27;4.50;;;3.53;;
1390;SDS011;690;51.454;7.194;2022-07-29T13:19:07;7.90;;;3.70;;
1390;SDS011;690;51.454;7.194;2022-07-29T13:21:38;5.77;;;3.47;;
1390;SDS011;690;51.454;7.194;2022-07-29T13:24:06;6.03;;;3.10;;
1390;SDS011;690;51.454;7.194;2022-07-29T13:26:34;7.63;;;3.40;;
1390;SDS011;690;51.454;7.194;2022-07-29T13:29:01;5.87;;;3.27;;
1390;SDS011;690;51.454;7.194;2022-07-29T13:31:29;6.20;;;5.10;;
1390;SDS011;690;51.454;7.194;2022-07-29T13:33:56;6.60;;;4.03;;
1390;SDS011;690;51.454;7.194;2022-07-29T13:36:23;6.60;;;3.50;;
1390;SDS011;690;51.454;7.194;2022-07-29T13:38:53;7.50;;;3.20;;
1390;SDS011;690;51.454;7.194;2022-07-29T13:41:20;7.03;;;3.70;;
1390;SDS011;690;51.454;7.194;2022-07-29T13:43:47;4.87;;;3.70;;
1390;SDS011;690;51.454;7.194;2022-07-29T13:46:14;5.57;;;3.60;;
1390;SDS011;690;51.454;7.194;2022-07-29T13:48:41;7.03;;;3.90;;
1390;SDS011;690;51.454;7.194;2022-07-29T13:51:08;8.13;;;3.00;;
1390;SDS011;690;51.454;7.194;2022-07-29T13:53:35;9.03;;;3.73;;
1390;SDS011;690;51.454;7.194;2022-07-29T13:56:04;7.37;;;4.43;;
1390;SDS011;690;51.454;7.194;2022-07-29T13:58:32;8.70;;;3.63;;
1390;SDS011;690;51.454;7.194;2022-07-29T14:01:00;6.93;;;3.60;;
1390;SDS011;690;51.454;7.194;2022-07-29T14:03:28;8.90;;;3.90;;
1390;SDS011;690;51.454;7.194;2022-07-29T14:05:55;5.60;;;3.20;;
1390;SDS011;690;51.454;7.194;2022-07-29T14:08:25;4.83;;;3.40;;
1390;SDS011;690;51.454;7.194;2022-07-29T14:10:52;6.90;;;3.53;;
1390;SDS011;690;51.454;7.194;2022-07-29T14:13:20;6.13;;;3.40;;
1390;SDS011;690;51.454;7.194;2022-07-29T14:15:47;7.47;;;3.27;;
1390;SDS011;690;51.454;7.194;2022-07-29T14:18:14;7.67;;;3.67;;
1390;SDS011;690;51.454;7.194;2022-07-29T14:20:41;4.03;;;3.50;;
1390;SDS011;690;51.454;7.194;2022-07-29T14:23:08;3.07;;;2.73;;
1390;SDS011;690;51.454;7.194;2022-07-29T14:25:35;5.00;;;3.47;;
1390;SDS011;690;51.454;7.194;2022-07-29T14:28:02;3.70;;;2.93;;
1390;SDS011;690;51.454;7.194;2022-07-29T14:30:31;5.70;;;3.07;;
1390;SDS011;690;51.454;7.194;2022-07-29T14:32:58;5.40;;;3.07;;
1390;SDS011;690;51.454;7.194;2022-07-29T14:35:26;4.63;;;3.00;;
1390;SDS011;690;51.454;7.194;2022-07-29T14:37:53;4.00;;;3.10;;
1390;SDS011;690;51.454;7.194;2022-07-29T14:40:20;6.40;;;3.37;;
1390;SDS011;690;51.454;7.194;2022-07-29T14:42:48;5.37;;;3.43;;
1390;SDS011;690;51.454;7.194;2022-07-29T14:45:15;5.20;;;3.83;;
1390;SDS011;690;51.454;7.194;2022-07-29T14:47:43;5.20;;;3.20;;
1390;SDS011;690;51.454;7.194;2022-07-29T14:50:10;4.00;;;3.40;;
1390;SDS011;690;51.454;7.194;2022-07-29T14:52:38;10.33;;;4.63;;
1390;SDS011;690;51.454;7.194;2022-07-29T14:55:05;6.23;;;3.50;;
1390;SDS011;690;51.454;7.194;2022-07-29T14:57:33;5.97;;;3.73;;
1390;SDS011;690;51.454;7.194;2022-07-29T15:00:00;10.07;;;3.97;;
1390;SDS011;690;51.454;7.194;2022-07-29T15:02:28;5.43;;;3.70;;
1390;SDS011;690;51.454;7.194;2022-07-29T15:04:57;4.53;;;2.87;;
1390;SDS011;690;51.454;7.194;2022-07-29T15:07:24;7.60;;;3.07;;
1390;SDS011;690;51.454;7.194;2022-07-29T15:09:51;7.60;;;3.37;;
1390;SDS011;690;51.454;7.194;2022-07-29T15:12:18;4.00;;;3.60;;
1390;SDS011;690;51.454;7.194;2022-07-29T15:14:45;6.57;;;3.33;;
1390;SDS011;690;51.454;7.194;2022-07-29T15:17:13;4.53;;;3.20;;
1390;SDS011;690;51.454;7.194;2022-07-29T15:19:40;5.70;;;3.30;;
1390;SDS011;690;51.454;7.194;2022-07-29T15:22:08;5.67;;;3.40;;
1390;SDS011;690;51.454;7.194;2022-07-29T15:24:35;4.17;;;3.50;;
1390;SDS011;690;51.454;7.194;2022-07-29T15:27:02;6.10;;;3.17;;
1390;SDS011;690;51.454;7.194;2022-07-29T15:29:29;6.10;;;3.17;;
1390;SDS011;690;51.454;7.194;2022-07-29T15:31:57;6.43;;;3.23;;
1390;SDS011;690;51.454;7.194;2022-07-29T15:34:24;9.03;;;3.50;;
1390;SDS011;690;51.454;7.194;2022-07-29T15:36:51;4.97;;;2.90;;
1390;SDS011;690;51.454;7.194;2022-07-29T15:39:20;5.50;;;3.03;;
1390;SDS011;690;51.454;7.194;2022-07-29T15:41:48;4.63;;;3.07;;
1390;SDS011;690;51.454;7.194;2022-07-29T15:44:15;6.80;;;3.00;;
1390;SDS011;690;51.454;7.194;2022-07-29T15:46:43;6.03;;;3.33;;
1390;SDS011;690;51.454;7.194;2022-07-29T15:49:27;7.30;;;3.23;;
1390;SDS011;690;51.454;7.194;2022-07-29T15:51:56;6.80;;;4.00;;
1390;SDS011;690;51.454;7.194;2022-07-29T15:54:26;5.70;;;3.57;;
1390;SDS011;690;51.454;7.194;2022-07-29T15:56:53;5.03;;;3.20;;